sensor_id;sensor_type;location;lat;lon;timestamp;P1;durP1;ratioP1;P2;durP2;ratioP2
25479;SDS011;13393;49.378;8.686;2023-02-01T00:00:54;6.18;;;3.45;;
25479;SDS011;13393;49.378;8.686;2023-02-01T00:03:21;3.67;;;3.20;;
25479;SDS011;13393;49.378;8.686;2023-02-01T00:05:55;4.60;;;3.30;;
25479;SDS011;13393;49.378;8.686;2023-02-01T00:08:22;5.57;;;3.50;;
25479;SDS011;13393;49.378;8.686;2023-02-01T00:10:48;3.88;;;3.00;;
25479;SDS011;13393;49.378;8.686;2023-02-01T00:13:15;4.05;;;3.25;;
25479;SDS011;13393;49.378;8.686;2023-02-01T00:15:41;6.20;;;3.50;;
25479;SDS011;13393;49.378;8.686;2023-02-01T00:18:07;6.35;;;3.97;;
25479;SDS011;13393;49.378;8.686;2023-02-01T00:20:34;5.55;;;4.03;;
25479;SDS011;13393;49.378;8.686;2023-02-01T00:23:01;5.15;;;3.70;;
25479;SDS011;13393;49.378;8.686;2023-02-01T00:25:28;4.68;;;3.55;;
25479;SDS011;13393;49.378;8.686;2023-02-01T00:27:54;5.63;;;3.47;;
25479;SDS011;13393;49.378;8.686;2023-02-01T00:30:22;8.10;;;3.53;;
25479;SDS011;13393;49.378;8.686;2023-02-01T00:32:48;4.63;;;3.45;;
25479;SDS011;13393;49.378;8.686;2023-02-01T00:35:15;5.68;;;3.88;;
25479;SDS011;13393;49.378;8.686;2023-02-01T00:37:41;5.93;;;3.50;;
25479;SDS011;13393;49.378;8.686;2023-02-01T00:40:09;5.28;;;3.58;;
25479;SDS011;13393;49.378;8.686;2023-02-01T00:42:36;5.10;;;3.80;;
25479;SDS011;13393;49.378;8.686;2023-02-01T00:45:03;5.22;;;3.70;;
25479;SDS011;13393;49.378;8.686;2023-02-01T00:47:29;5.40;;;4.03;;
25479;SDS011;13393;49.378;8.686;2023-02-01T00:49:56;6.65;;;4.07;;
25479;SDS011;13393;49.378;8.686;2023-02-01T00:52:23;6.60;;;3.53;;
25479;SDS011;13393;49.378;8.686;2023-02-01T00:54:49;3.88;;;3.47;;
25479;SDS011;13393;49.378;8.686;2023-02-01T00:57:17;6.03;;;4.00;;
25479;SDS011;13393;49.378;8.686;2023-02-01T00:59:43;4.07;;;3.40;;
25479;SDS011;13393;49.378;8.686;2023-02-01T01:02:09;3.90;;;3.50;;
25479;SDS011;13393;49.378;8.686;2023-02-01T01:04:39;6.38;;;3.95;;
25479;SDS011;13393;49.378;8.686;2023-02-01T01:07:05;5.22;;;3.17;;
25479;SDS011;13393;49.378;8.686;2023-02-01T01:09:31;4.60;;;3.70;;
25479;SDS011;13393;49.378;8.686;2023-02-01T01:11:58;5.03;;;3.58;;
25479;SDS011;13393;49.378;8.686;2023-02-01T01:14:28;7.20;;;3.40;;
25479;SDS011;13393;49.378;8.686;2023-02-01T01:16:55;4.93;;;3.28;;
25479;SDS011;13393;49.378;8.686;2023-02-01T01:19:21;5.78;;;3.95;;
25479;SDS011;13393;49.378;8.686;2023-02-01T01:21:48;7.05;;;3.90;;
25479;SDS011;13393;49.378;8.686;2023-02-01T01:24:14;5.05;;;3.75;;
25479;SDS011;13393;49.378;8.686;2023-02-01T01:26:40;5.15;;;4.13;;
25479;SDS011;13393;49.378;8.686;2023-02-01T01:29:08;6.25;;;3.70;;
25479;SDS011;13393;49.378;8.686;2023-02-01T01:31:36;6.20;;;3.88;;
25479;SDS011;13393;49.378;8.686;2023-02-01T01:34:03;3.97;;;3.08;;
25479;SDS011;13393;49.378;8.686;2023-02-01T01:36:29;5.68;;;3.47;;
25479;SDS011;13393;49.378;8.686;2023-02-01T01:38:56;4.15;;;3.53;;
25479;SDS011;13393;49.378;8.686;2023-02-01T01:41:23;4.55;;;3.70;;
25479;SDS011;13393;49.378;8.686;2023-02-01T01:43:51;6.03;;;3.45;;
25479;SDS011;13393;49.378;8.686;2023-02-01T01:46:18;5.82;;;4.32;;
25479;SDS011;13393;49.378;8.686;2023-02-01T01:48:47;5.32;;;3.83;;
25479;SDS011;13393;49.378;8.686;2023-02-01T01:51:14;6.90;;;3.83;;
25479;SDS011;13393;49.378;8.686;2023-02-01T01:53:45;6.50;;;3.70;;
25479;SDS011;13393;49.378;8.686;2023-02-01T01:56:12;5.82;;;3.67;;
25479;SDS011;13393;49.378;8.686;2023-02-01T01:58:39;7.20;;;3.60;;
25479;SDS011;13393;49.378;8.686;2023-02-01T02:01:06;5.47;;;3.67;;
25479;SDS011;13393;49.378;8.686;2023-02-01T02:03:33;5.50;;;3.70;;
25479;SDS011;13393;49.378;8.686;2023-02-01T02:06:02;7.55;;;3.53;;
25479;SDS011;13393;49.378;8.686;2023-02-01T02:08:29;5.93;;;3.55;;
25479;SDS011;13393;49.378;8.686;2023-02-01T02:10:55;4.03;;;3.10;;
25479;SDS011;13393;49.378;8.686;2023-02-01T02:13:29;4.30;;;3.45;;
25479;SDS011;13393;49.378;8.686;2023-02-01T02:18:45;5.80;;;3.90;;
25479;SDS011;13393;49.378;8.686;2023-02-01T02:21:16;4.85;;;3.45;;
25479;SDS011;13393;49.378;8.686;2023-02-01T02:29:23;4.45;;;3.65;;
25479;SDS011;13393;49.378;8.686;2023-02-01T02:31:54;4.68;;;3.80;;
25479;SDS011;13393;49.378;8.686;2023-02-01T02:34:26;7.20;;;3.95;;
25479;SDS011;13393;49.378;8.686;2023-02-01T02:36:56;7.28;;;4.28;;
25479;SDS011;13393;49.378;8.686;2023-02-01T02:39:30;5.97;;;4.38;;
25479;SDS011;13393;49.378;8.686;2023-02-01T02:41:59;8.13;;;4.50;;
25479;SDS011;13393;49.378;8.686;2023-02-01T02:44:54;9.27;;;4.50;;
25479;SDS011;13393;49.378;8.686;2023-02-01T02:47:42;5.45;;;3.80;;
25479;SDS011;13393;49.378;8.686;2023-02-01T02:50:17;7.93;;;4.35;;
25479;SDS011;13393;49.378;8.686;2023-02-01T02:53:03;7.05;;;4.20;;
25479;SDS011;13393;49.378;8.686;2023-02-01T02:55:49;5.03;;;3.97;;
25479;SDS011;13393;49.378;8.686;2023-02-01T02:58:16;5.50;;;3.80;;
25479;SDS011;13393;49.378;8.686;2023-02-01T03:01:00;6.70;;;4.25;;
25479;SDS011;13393;49.378;8.686;2023-02-01T03:03:45;4.70;;;3.67;;
25479;SDS011;13393;49.378;8.686;2023-02-01T03:06:35;5.07;;;3.25;;
25479;SDS011;13393;49.378;8.686;2023-02-01T03:09:03;7.38;;;3.72;;
25479;SDS011;13393;49.378;8.686;2023-02-01T03:11:30;5.25;;;4.00;;
25479;SDS011;13393;49.378;8.686;2023-02-01T03:14:12;5.93;;;3.53;;
25479;SDS011;13393;49.378;8.686;2023-02-01T03:16:40;6.63;;;3.78;;
25479;SDS011;13393;49.378;8.686;2023-02-01T03:19:10;6.65;;;4.03;;
25479;SDS011;13393;49.378;8.686;2023-02-01T03:21:41;4.88;;;3.75;;
25479;SDS011;13393;49.378;8.686;2023-02-01T03:24:09;5.13;;;3.72;;
25479;SDS011;13393;49.378;8.686;2023-02-01T03:26:38;6.53;;;3.70;;
25479;SDS011;13393;49.378;8.686;2023-02-01T03:29:08;4.75;;;3.55;;
25479;SDS011;13393;49.378;8.686;2023-02-01T03:31:38;4.85;;;3.50;;
25479;SDS011;13393;49.378;8.686;2023-02-01T03:34:05;6.80;;;3.80;;
25479;SDS011;13393;49.378;8.686;2023-02-01T03:36:33;6.68;;;3.72;;
25479;SDS011;13393;49.378;8.686;2023-02-01T03:39:03;6.70;;;4.07;;
25479;SDS011;13393;49.378;8.686;2023-02-01T03:41:33;6.85;;;3.80;;
25479;SDS011;13393;49.378;8.686;2023-02-01T03:44:01;7.13;;;4.35;;
25479;SDS011;13393;49.378;8.686;2023-02-01T03:46:30;6.75;;;3.90;;
25479;SDS011;13393;49.378;8.686;2023-02-01T03:48:59;5.72;;;4.20;;
25479;SDS011;13393;49.378;8.686;2023-02-01T03:51:26;6.97;;;4.07;;
25479;SDS011;13393;49.378;8.686;2023-02-01T03:53:53;7.55;;;4.55;;
25479;SDS011;13393;49.378;8.686;2023-02-01T03:56:21;7.35;;;4.13;;
25479;SDS011;13393;49.378;8.686;2023-02-01T03:58:48;7.22;;;4.40;;
25479;SDS011;13393;49.378;8.686;2023-02-01T04:01:24;7.88;;;4.35;;
25479;SDS011;13393;49.378;8.686;2023-02-01T04:03:50;6.53;;;3.92;;
25479;SDS011;13393;49.378;8.686;2023-02-01T04:06:17;7.50;;;4.20;;
25479;SDS011;13393;49.378;8.686;2023-02-01T04:08:43;7.03;;;3.85;;
25479;SDS011;13393;49.378;8.686;2023-02-01T04:11:09;5.78;;;3.85;;
25479;SDS011;13393;49.378;8.686;2023-02-01T04:13:37;6.18;;;3.95;;
25479;SDS011;13393;49.378;8.686;2023-02-01T04:16:04;8.68;;;4.65;;
25479;SDS011;13393;49.378;8.686;2023-02-01T04:18:31;5.22;;;3.88;;
25479;SDS011;13393;49.378;8.686;2023-02-01T04:20:57;9.13;;;4.20;;
25479;SDS011;13393;49.378;8.686;2023-02-01T04:23:23;5.70;;;3.83;;
25479;SDS011;13393;49.378;8.686;2023-02-01T04:25:50;11.13;;;5.07;;
25479;SDS011;13393;49.378;8.686;2023-02-01T04:28:16;7.85;;;4.20;;
25479;SDS011;13393;49.378;8.686;2023-02-01T04:30:44;5.80;;;3.88;;
25479;SDS011;13393;49.378;8.686;2023-02-01T04:33:11;5.85;;;3.95;;
25479;SDS011;13393;49.378;8.686;2023-02-01T04:35:38;7.32;;;3.90;;
25479;SDS011;13393;49.378;8.686;2023-02-01T04:38:05;6.28;;;4.60;;
25479;SDS011;13393;49.378;8.686;2023-02-01T04:40:31;5.65;;;4.60;;
25479;SDS011;13393;49.378;8.686;2023-02-01T04:42:58;11.05;;;4.82;;
25479;SDS011;13393;49.378;8.686;2023-02-01T04:45:24;8.27;;;4.45;;
25479;SDS011;13393;49.378;8.686;2023-02-01T04:47:52;7.32;;;4.57;;
25479;SDS011;13393;49.378;8.686;2023-02-01T04:50:18;7.30;;;4.43;;
25479;SDS011;13393;49.378;8.686;2023-02-01T04:52:45;7.55;;;4.07;;
25479;SDS011;13393;49.378;8.686;2023-02-01T04:55:11;9.75;;;4.50;;
25479;SDS011;13393;49.378;8.686;2023-02-01T04:57:38;7.60;;;4.40;;
25479;SDS011;13393;49.378;8.686;2023-02-01T05:00:05;9.05;;;4.72;;
25479;SDS011;13393;49.378;8.686;2023-02-01T05:02:32;8.05;;;4.88;;
25479;SDS011;13393;49.378;8.686;2023-02-01T05:05:01;6.75;;;3.85;;
25479;SDS011;13393;49.378;8.686;2023-02-01T05:07:27;6.85;;;4.25;;
25479;SDS011;13393;49.378;8.686;2023-02-01T05:09:54;8.13;;;3.92;;
25479;SDS011;13393;49.378;8.686;2023-02-01T05:12:20;5.80;;;3.88;;
25479;SDS011;13393;49.378;8.686;2023-02-01T05:15:04;10.13;;;4.23;;
25479;SDS011;13393;49.378;8.686;2023-02-01T05:17:31;5.53;;;3.65;;
25479;SDS011;13393;49.378;8.686;2023-02-01T05:19:57;5.95;;;4.00;;
25479;SDS011;13393;49.378;8.686;2023-02-01T05:22:25;5.57;;;3.72;;
25479;SDS011;13393;49.378;8.686;2023-02-01T05:24:51;4.88;;;3.22;;
25479;SDS011;13393;49.378;8.686;2023-02-01T05:27:18;5.68;;;3.17;;
25479;SDS011;13393;49.378;8.686;2023-02-01T05:29:44;6.78;;;3.40;;
25479;SDS011;13393;49.378;8.686;2023-02-01T05:32:10;4.75;;;3.53;;
25479;SDS011;13393;49.378;8.686;2023-02-01T05:34:37;7.80;;;3.28;;
25479;SDS011;13393;49.378;8.686;2023-02-01T05:37:03;4.05;;;3.10;;
25479;SDS011;13393;49.378;8.686;2023-02-01T05:39:31;4.18;;;3.20;;
25479;SDS011;13393;49.378;8.686;2023-02-01T05:41:57;3.33;;;3.03;;
25479;SDS011;13393;49.378;8.686;2023-02-01T05:44:24;6.15;;;3.20;;
25479;SDS011;13393;49.378;8.686;2023-02-01T05:46:50;7.15;;;3.10;;
25479;SDS011;13393;49.378;8.686;2023-02-01T05:49:17;5.28;;;3.53;;
25479;SDS011;13393;49.378;8.686;2023-02-01T05:51:43;4.72;;;3.70;;
25479;SDS011;13393;49.378;8.686;2023-02-01T05:54:10;7.30;;;3.60;;
25479;SDS011;13393;49.378;8.686;2023-02-01T05:56:37;5.82;;;3.47;;
25479;SDS011;13393;49.378;8.686;2023-02-01T05:59:05;7.07;;;4.38;;
25479;SDS011;13393;49.378;8.686;2023-02-01T06:01:32;5.35;;;3.90;;
25479;SDS011;13393;49.378;8.686;2023-02-01T06:03:58;6.03;;;3.55;;
25479;SDS011;13393;49.378;8.686;2023-02-01T06:06:24;7.53;;;3.78;;
25479;SDS011;13393;49.378;8.686;2023-02-01T06:08:51;8.23;;;3.78;;
25479;SDS011;13393;49.378;8.686;2023-02-01T06:11:17;7.53;;;4.28;;
25479;SDS011;13393;49.378;8.686;2023-02-01T06:13:45;5.40;;;3.75;;
25479;SDS011;13393;49.378;8.686;2023-02-01T06:16:11;7.57;;;4.13;;
25479;SDS011;13393;49.378;8.686;2023-02-01T06:18:40;5.88;;;4.25;;
25479;SDS011;13393;49.378;8.686;2023-02-01T06:21:06;4.93;;;4.05;;
25479;SDS011;13393;49.378;8.686;2023-02-01T06:23:32;6.38;;;3.85;;
25479;SDS011;13393;49.378;8.686;2023-02-01T06:25:59;6.55;;;3.80;;
25479;SDS011;13393;49.378;8.686;2023-02-01T06:28:26;6.95;;;3.80;;
25479;SDS011;13393;49.378;8.686;2023-02-01T06:30:54;4.40;;;3.28;;
25479;SDS011;13393;49.378;8.686;2023-02-01T06:33:22;5.93;;;3.88;;
25479;SDS011;13393;49.378;8.686;2023-02-01T06:35:49;6.53;;;4.30;;
25479;SDS011;13393;49.378;8.686;2023-02-01T06:38:22;6.13;;;3.95;;
25479;SDS011;13393;49.378;8.686;2023-02-01T06:40:51;4.68;;;4.03;;
25479;SDS011;13393;49.378;8.686;2023-02-01T06:43:17;10.65;;;3.80;;
25479;SDS011;13393;49.378;8.686;2023-02-01T06:45:44;5.90;;;3.83;;
25479;SDS011;13393;49.378;8.686;2023-02-01T06:48:11;7.03;;;4.07;;
25479;SDS011;13393;49.378;8.686;2023-02-01T06:50:38;6.75;;;4.20;;
25479;SDS011;13393;49.378;8.686;2023-02-01T06:53:04;6.05;;;4.28;;
25479;SDS011;13393;49.378;8.686;2023-02-01T06:55:30;5.63;;;3.70;;
25479;SDS011;13393;49.378;8.686;2023-02-01T06:57:57;6.10;;;3.83;;
25479;SDS011;13393;49.378;8.686;2023-02-01T07:00:23;6.15;;;4.22;;
25479;SDS011;13393;49.378;8.686;2023-02-01T07:02:50;5.88;;;4.03;;
25479;SDS011;13393;49.378;8.686;2023-02-01T07:05:17;6.38;;;3.95;;
25479;SDS011;13393;49.378;8.686;2023-02-01T07:07:44;6.75;;;4.38;;
25479;SDS011;13393;49.378;8.686;2023-02-01T07:10:10;7.93;;;4.15;;
25479;SDS011;13393;49.378;8.686;2023-02-01T07:12:36;6.38;;;3.67;;
25479;SDS011;13393;49.378;8.686;2023-02-01T07:15:03;6.15;;;3.60;;
25479;SDS011;13393;49.378;8.686;2023-02-01T07:17:29;7.65;;;4.05;;
25479;SDS011;13393;49.378;8.686;2023-02-01T07:19:56;8.13;;;4.30;;
25479;SDS011;13393;49.378;8.686;2023-02-01T07:22:25;8.35;;;4.40;;
25479;SDS011;13393;49.378;8.686;2023-02-01T07:24:51;7.55;;;4.15;;
25479;SDS011;13393;49.378;8.686;2023-02-01T07:27:17;10.18;;;4.13;;
25479;SDS011;13393;49.378;8.686;2023-02-01T07:29:44;9.65;;;4.15;;
25479;SDS011;13393;49.378;8.686;2023-02-01T07:32:11;7.63;;;4.22;;
25479;SDS011;13393;49.378;8.686;2023-02-01T07:34:37;9.07;;;4.38;;
25479;SDS011;13393;49.378;8.686;2023-02-01T07:37:04;12.20;;;4.25;;
25479;SDS011;13393;49.378;8.686;2023-02-01T07:39:31;3.42;;;3.05;;
25479;SDS011;13393;49.378;8.686;2023-02-01T07:41:58;6.95;;;3.03;;
25479;SDS011;13393;49.378;8.686;2023-02-01T07:44:24;4.88;;;2.80;;
25479;SDS011;13393;49.378;8.686;2023-02-01T07:46:50;9.25;;;3.30;;
25479;SDS011;13393;49.378;8.686;2023-02-01T07:49:17;8.10;;;3.90;;
25479;SDS011;13393;49.378;8.686;2023-02-01T07:51:43;5.43;;;3.25;;
25479;SDS011;13393;49.378;8.686;2023-02-01T07:54:09;9.40;;;3.70;;
25479;SDS011;13393;49.378;8.686;2023-02-01T07:56:37;10.32;;;3.30;;
25479;SDS011;13393;49.378;8.686;2023-02-01T07:59:03;9.20;;;3.70;;
25479;SDS011;13393;49.378;8.686;2023-02-01T08:01:31;9.23;;;3.75;;
25479;SDS011;13393;49.378;8.686;2023-02-01T08:03:58;10.20;;;3.88;;
25479;SDS011;13393;49.378;8.686;2023-02-01T08:06:26;10.48;;;4.63;;
25479;SDS011;13393;49.378;8.686;2023-02-01T08:08:53;12.38;;;5.28;;
25479;SDS011;13393;49.378;8.686;2023-02-01T08:11:19;9.23;;;4.65;;
25479;SDS011;13393;49.378;8.686;2023-02-01T08:13:47;11.07;;;5.22;;
25479;SDS011;13393;49.378;8.686;2023-02-01T08:16:15;8.57;;;4.15;;
25479;SDS011;13393;49.378;8.686;2023-02-01T08:18:41;14.82;;;4.63;;
25479;SDS011;13393;49.378;8.686;2023-02-01T08:21:09;9.68;;;4.22;;
25479;SDS011;13393;49.378;8.686;2023-02-01T08:23:35;12.60;;;4.47;;
25479;SDS011;13393;49.378;8.686;2023-02-01T08:26:06;11.00;;;4.32;;
25479;SDS011;13393;49.378;8.686;2023-02-01T08:28:33;12.18;;;4.63;;
25479;SDS011;13393;49.378;8.686;2023-02-01T08:31:04;12.43;;;4.75;;
25479;SDS011;13393;49.378;8.686;2023-02-01T08:33:31;10.48;;;4.38;;
25479;SDS011;13393;49.378;8.686;2023-02-01T08:35:57;14.80;;;4.57;;
25479;SDS011;13393;49.378;8.686;2023-02-01T08:38:23;12.13;;;4.30;;
25479;SDS011;13393;49.378;8.686;2023-02-01T08:40:50;11.68;;;4.57;;
25479;SDS011;13393;49.378;8.686;2023-02-01T08:43:16;13.85;;;4.93;;
25479;SDS011;13393;49.378;8.686;2023-02-01T08:45:44;11.75;;;4.80;;
25479;SDS011;13393;49.378;8.686;2023-02-01T08:48:12;11.55;;;4.80;;
25479;SDS011;13393;49.378;8.686;2023-02-01T08:50:38;11.27;;;4.90;;
25479;SDS011;13393;49.378;8.686;2023-02-01T08:53:05;12.68;;;4.53;;
25479;SDS011;13393;49.378;8.686;2023-02-01T08:55:31;11.85;;;4.88;;
25479;SDS011;13393;49.378;8.686;2023-02-01T08:57:57;14.57;;;4.90;;
25479;SDS011;13393;49.378;8.686;2023-02-01T09:00:24;15.85;;;5.22;;
25479;SDS011;13393;49.378;8.686;2023-02-01T09:02:50;13.55;;;5.68;;
25479;SDS011;13393;49.378;8.686;2023-02-01T09:05:18;14.68;;;4.90;;
25479;SDS011;13393;49.378;8.686;2023-02-01T09:07:47;16.42;;;4.97;;
25479;SDS011;13393;49.378;8.686;2023-02-01T09:10:13;12.27;;;4.57;;
25479;SDS011;13393;49.378;8.686;2023-02-01T09:12:40;16.90;;;4.90;;
25479;SDS011;13393;49.378;8.686;2023-02-01T09:15:07;11.88;;;4.90;;
25479;SDS011;13393;49.378;8.686;2023-02-01T09:17:33;10.57;;;4.35;;
25479;SDS011;13393;49.378;8.686;2023-02-01T09:19:59;12.38;;;4.32;;
25479;SDS011;13393;49.378;8.686;2023-02-01T09:22:27;18.08;;;4.60;;
25479;SDS011;13393;49.378;8.686;2023-02-01T09:24:53;17.23;;;4.95;;
25479;SDS011;13393;49.378;8.686;2023-02-01T09:27:20;18.42;;;4.88;;
25479;SDS011;13393;49.378;8.686;2023-02-01T09:29:47;14.73;;;5.05;;
25479;SDS011;13393;49.378;8.686;2023-02-01T09:32:17;17.17;;;4.60;;
25479;SDS011;13393;49.378;8.686;2023-02-01T09:34:43;13.73;;;4.03;;
25479;SDS011;13393;49.378;8.686;2023-02-01T09:37:09;14.73;;;4.30;;
25479;SDS011;13393;49.378;8.686;2023-02-01T09:39:37;12.40;;;4.25;;
25479;SDS011;13393;49.378;8.686;2023-02-01T09:42:07;15.48;;;4.22;;
25479;SDS011;13393;49.378;8.686;2023-02-01T09:44:37;10.70;;;3.67;;
25479;SDS011;13393;49.378;8.686;2023-02-01T09:47:09;12.40;;;4.07;;
25479;SDS011;13393;49.378;8.686;2023-02-01T09:49:37;11.52;;;4.18;;
25479;SDS011;13393;49.378;8.686;2023-02-01T09:52:10;12.43;;;3.92;;
25479;SDS011;13393;49.378;8.686;2023-02-01T09:54:42;17.60;;;5.30;;
25479;SDS011;13393;49.378;8.686;2023-02-01T09:57:10;14.55;;;4.05;;
25479;SDS011;13393;49.378;8.686;2023-02-01T09:59:39;17.35;;;4.35;;
25479;SDS011;13393;49.378;8.686;2023-02-01T10:02:11;15.80;;;3.95;;
25479;SDS011;13393;49.378;8.686;2023-02-01T10:04:38;12.90;;;3.28;;
25479;SDS011;13393;49.378;8.686;2023-02-01T10:07:07;19.27;;;4.38;;
25479;SDS011;13393;49.378;8.686;2023-02-01T10:09:44;11.70;;;3.20;;
25479;SDS011;13393;49.378;8.686;2023-02-01T10:14:59;12.25;;;3.88;;
25479;SDS011;13393;49.378;8.686;2023-02-01T10:17:42;12.80;;;4.20;;
25479;SDS011;13393;49.378;8.686;2023-02-01T10:20:12;11.05;;;3.33;;
25479;SDS011;13393;49.378;8.686;2023-02-01T10:22:42;19.02;;;4.53;;
25479;SDS011;13393;49.378;8.686;2023-02-01T10:25:14;11.93;;;3.53;;
25479;SDS011;13393;49.378;8.686;2023-02-01T10:27:42;15.48;;;4.05;;
25479;SDS011;13393;49.378;8.686;2023-02-01T10:30:14;11.60;;;3.58;;
25479;SDS011;13393;49.378;8.686;2023-02-01T10:32:42;16.95;;;4.30;;
25479;SDS011;13393;49.378;8.686;2023-02-01T10:35:09;14.07;;;3.35;;
25479;SDS011;13393;49.378;8.686;2023-02-01T10:37:39;12.38;;;3.88;;
25479;SDS011;13393;49.378;8.686;2023-02-01T10:40:11;11.30;;;3.15;;
25479;SDS011;13393;49.378;8.686;2023-02-01T10:42:40;12.70;;;3.10;;
25479;SDS011;13393;49.378;8.686;2023-02-01T10:45:11;16.55;;;4.05;;
25479;SDS011;13393;49.378;8.686;2023-02-01T10:47:39;17.67;;;2.80;;
25479;SDS011;13393;49.378;8.686;2023-02-01T10:50:09;11.85;;;3.00;;
25479;SDS011;13393;49.378;8.686;2023-02-01T10:52:40;15.40;;;3.10;;
25479;SDS011;13393;49.378;8.686;2023-02-01T10:55:28;16.75;;;3.63;;
25479;SDS011;13393;49.378;8.686;2023-02-01T10:57:57;15.43;;;3.38;;
25479;SDS011;13393;49.378;8.686;2023-02-01T11:00:24;17.42;;;4.03;;
25479;SDS011;13393;49.378;8.686;2023-02-01T11:02:50;16.13;;;3.40;;
25479;SDS011;13393;49.378;8.686;2023-02-01T11:05:17;17.65;;;4.72;;
25479;SDS011;13393;49.378;8.686;2023-02-01T11:07:46;12.52;;;3.40;;
25479;SDS011;13393;49.378;8.686;2023-02-01T11:10:13;12.73;;;3.38;;
25479;SDS011;13393;49.378;8.686;2023-02-01T11:13:02;18.05;;;3.70;;
25479;SDS011;13393;49.378;8.686;2023-02-01T11:15:29;13.05;;;3.22;;
25479;SDS011;13393;49.378;8.686;2023-02-01T11:17:55;17.23;;;3.10;;
25479;SDS011;13393;49.378;8.686;2023-02-01T11:20:33;12.93;;;3.22;;
25479;SDS011;13393;49.378;8.686;2023-02-01T11:23:02;11.32;;;3.35;;
25479;SDS011;13393;49.378;8.686;2023-02-01T11:25:28;14.90;;;3.50;;
25479;SDS011;13393;49.378;8.686;2023-02-01T11:27:56;14.27;;;4.43;;
25479;SDS011;13393;49.378;8.686;2023-02-01T11:30:27;14.38;;;3.40;;
25479;SDS011;13393;49.378;8.686;2023-02-01T11:32:56;12.98;;;3.13;;
25479;SDS011;13393;49.378;8.686;2023-02-01T11:35:22;15.20;;;5.25;;
25479;SDS011;13393;49.378;8.686;2023-02-01T11:37:50;18.10;;;4.25;;
25479;SDS011;13393;49.378;8.686;2023-02-01T11:40:25;14.40;;;3.38;;
25479;SDS011;13393;49.378;8.686;2023-02-01T11:42:53;9.38;;;2.88;;
25479;SDS011;13393;49.378;8.686;2023-02-01T11:45:20;16.10;;;3.72;;
25479;SDS011;13393;49.378;8.686;2023-02-01T11:47:48;16.88;;;3.75;;
25479;SDS011;13393;49.378;8.686;2023-02-01T11:50:18;13.00;;;3.47;;
25479;SDS011;13393;49.378;8.686;2023-02-01T11:52:50;16.58;;;3.83;;
25479;SDS011;13393;49.378;8.686;2023-02-01T11:55:33;19.48;;;4.90;;
25479;SDS011;13393;49.378;8.686;2023-02-01T11:58:06;15.95;;;4.50;;
25479;SDS011;13393;49.378;8.686;2023-02-01T12:00:46;16.80;;;3.63;;
25479;SDS011;13393;49.378;8.686;2023-02-01T12:03:31;19.95;;;3.75;;
25479;SDS011;13393;49.378;8.686;2023-02-01T12:06:04;12.95;;;3.15;;
25479;SDS011;13393;49.378;8.686;2023-02-01T12:08:42;15.60;;;3.33;;
25479;SDS011;13393;49.378;8.686;2023-02-01T12:11:18;14.30;;;3.15;;
25479;SDS011;13393;49.378;8.686;2023-02-01T12:13:48;17.25;;;3.80;;
25479;SDS011;13393;49.378;8.686;2023-02-01T12:16:19;18.08;;;3.60;;
25479;SDS011;13393;49.378;8.686;2023-02-01T12:18:59;17.05;;;3.42;;
25479;SDS011;13393;49.378;8.686;2023-02-01T12:21:33;14.07;;;3.05;;
25479;SDS011;13393;49.378;8.686;2023-02-01T12:24:11;15.30;;;2.75;;
25479;SDS011;13393;49.378;8.686;2023-02-01T12:26:46;12.32;;;3.15;;
25479;SDS011;13393;49.378;8.686;2023-02-01T12:29:19;11.90;;;2.90;;
25479;SDS011;13393;49.378;8.686;2023-02-01T12:31:51;13.63;;;3.30;;
25479;SDS011;13393;49.378;8.686;2023-02-01T12:34:32;9.07;;;3.10;;
25479;SDS011;13393;49.378;8.686;2023-02-01T12:37:03;18.05;;;3.85;;
25479;SDS011;13393;49.378;8.686;2023-02-01T12:39:36;11.10;;;3.13;;
25479;SDS011;13393;49.378;8.686;2023-02-01T12:42:07;10.77;;;3.08;;
25479;SDS011;13393;49.378;8.686;2023-02-01T12:44:39;14.15;;;2.90;;
25479;SDS011;13393;49.378;8.686;2023-02-01T12:47:08;13.35;;;3.47;;
25479;SDS011;13393;49.378;8.686;2023-02-01T12:49:43;15.68;;;3.45;;
25479;SDS011;13393;49.378;8.686;2023-02-01T12:52:12;13.27;;;2.83;;
25479;SDS011;13393;49.378;8.686;2023-02-01T12:54:41;10.07;;;2.55;;
25479;SDS011;13393;49.378;8.686;2023-02-01T12:57:10;18.38;;;4.10;;
25479;SDS011;13393;49.378;8.686;2023-02-01T12:59:38;16.60;;;3.25;;
25479;SDS011;13393;49.378;8.686;2023-02-01T13:02:10;11.55;;;3.10;;
25479;SDS011;13393;49.378;8.686;2023-02-01T13:04:41;13.07;;;3.60;;
25479;SDS011;13393;49.378;8.686;2023-02-01T13:07:11;11.25;;;3.25;;
25479;SDS011;13393;49.378;8.686;2023-02-01T13:09:39;9.15;;;2.60;;
25479;SDS011;13393;49.378;8.686;2023-02-01T13:12:10;16.73;;;3.58;;
25479;SDS011;13393;49.378;8.686;2023-02-01T13:14:39;15.20;;;3.38;;
25479;SDS011;13393;49.378;8.686;2023-02-01T13:17:09;17.95;;;3.15;;
25479;SDS011;13393;49.378;8.686;2023-02-01T13:19:40;12.45;;;2.97;;
25479;SDS011;13393;49.378;8.686;2023-02-01T13:22:10;12.25;;;2.40;;
25479;SDS011;13393;49.378;8.686;2023-02-01T13:24:39;13.13;;;2.90;;
25479;SDS011;13393;49.378;8.686;2023-02-01T13:27:08;12.98;;;3.55;;
25479;SDS011;13393;49.378;8.686;2023-02-01T13:29:36;13.50;;;4.20;;
25479;SDS011;13393;49.378;8.686;2023-02-01T13:32:10;15.43;;;4.07;;
25479;SDS011;13393;49.378;8.686;2023-02-01T13:34:49;12.93;;;3.33;;
25479;SDS011;13393;49.378;8.686;2023-02-01T13:37:30;14.00;;;3.88;;
25479;SDS011;13393;49.378;8.686;2023-02-01T13:40:08;11.93;;;2.60;;
25479;SDS011;13393;49.378;8.686;2023-02-01T13:42:41;18.85;;;3.70;;
25479;SDS011;13393;49.378;8.686;2023-02-01T13:45:13;15.48;;;3.17;;
25479;SDS011;13393;49.378;8.686;2023-02-01T13:47:40;10.85;;;2.85;;
25479;SDS011;13393;49.378;8.686;2023-02-01T13:50:12;11.98;;;2.97;;
25479;SDS011;13393;49.378;8.686;2023-02-01T13:52:42;17.77;;;3.83;;
25479;SDS011;13393;49.378;8.686;2023-02-01T13:55:22;14.48;;;3.15;;
25479;SDS011;13393;49.378;8.686;2023-02-01T13:57:49;17.35;;;3.72;;
25479;SDS011;13393;49.378;8.686;2023-02-01T14:00:23;15.07;;;3.15;;
25479;SDS011;13393;49.378;8.686;2023-02-01T14:03:01;12.95;;;2.47;;
25479;SDS011;13393;49.378;8.686;2023-02-01T14:08:20;12.45;;;3.00;;
25479;SDS011;13393;49.378;8.686;2023-02-01T14:10:47;17.27;;;3.03;;
25479;SDS011;13393;49.378;8.686;2023-02-01T14:13:21;14.00;;;3.00;;
25479;SDS011;13393;49.378;8.686;2023-02-01T14:16:10;12.57;;;2.75;;
25479;SDS011;13393;49.378;8.686;2023-02-01T14:18:54;11.25;;;2.80;;
25479;SDS011;13393;49.378;8.686;2023-02-01T14:21:24;12.80;;;2.97;;
25479;SDS011;13393;49.378;8.686;2023-02-01T14:23:56;19.45;;;3.40;;
25479;SDS011;13393;49.378;8.686;2023-02-01T14:26:24;13.98;;;3.10;;
25479;SDS011;13393;49.378;8.686;2023-02-01T14:28:58;12.38;;;2.95;;
25479;SDS011;13393;49.378;8.686;2023-02-01T14:33:55;12.48;;;3.10;;
25479;SDS011;13393;49.378;8.686;2023-02-01T14:36:22;10.60;;;2.97;;
25479;SDS011;13393;49.378;8.686;2023-02-01T14:38:49;8.15;;;2.50;;
25479;SDS011;13393;49.378;8.686;2023-02-01T14:41:23;13.07;;;2.50;;
25479;SDS011;13393;49.378;8.686;2023-02-01T14:46:17;14.68;;;2.90;;
25479;SDS011;13393;49.378;8.686;2023-02-01T14:48:44;14.00;;;3.38;;
25479;SDS011;13393;49.378;8.686;2023-02-01T14:51:13;11.25;;;2.72;;
25479;SDS011;13393;49.378;8.686;2023-02-01T14:53:40;14.10;;;2.95;;
25479;SDS011;13393;49.378;8.686;2023-02-01T14:56:08;14.93;;;3.25;;
25479;SDS011;13393;49.378;8.686;2023-02-01T14:58:40;16.50;;;2.83;;
25479;SDS011;13393;49.378;8.686;2023-02-01T15:01:15;12.73;;;2.78;;
25479;SDS011;13393;49.378;8.686;2023-02-01T15:03:47;17.63;;;3.88;;
25479;SDS011;13393;49.378;8.686;2023-02-01T15:06:21;17.48;;;3.38;;
25479;SDS011;13393;49.378;8.686;2023-02-01T15:08:48;19.10;;;4.03;;
25479;SDS011;13393;49.378;8.686;2023-02-01T15:11:15;19.13;;;3.88;;